createdAt,value
2019-01-04T00:00:29.053Z,4.00
2019-01-04T00:04:37.305Z,4.00
2019-01-04T00:08:45.541Z,4.00
2019-01-04T00:12:53.826Z,4.00
2019-01-04T00:17:02.065Z,4.00
2019-01-04T00:21:10.311Z,4.00
2019-01-04T00:25:18.601Z,3.90
2019-01-04T00:29:26.862Z,3.90
2019-01-04T00:37:43.218Z,3.80
2019-01-04T00:41:51.519Z,3.90
2019-01-04T00:45:59.817Z,3.80
2019-01-04T00:50:08.345Z,3.90
2019-01-04T00:54:16.608Z,3.80
2019-01-04T01:00:54.369Z,3.90
2019-01-04T01:05:30.750Z,3.90
2019-01-04T01:11:55.981Z,3.90
2019-01-04T01:16:14.629Z,3.90
2019-01-04T01:20:34.834Z,3.90
2019-01-04T01:25:00.217Z,3.90
2019-01-04T01:29:24.539Z,3.90
2019-01-04T01:34:13.912Z,3.90
2019-01-04T01:38:33.513Z,3.80
2019-01-04T01:42:54.645Z,3.80
2019-01-04T01:48:00.121Z,3.60
2019-01-04T01:52:13.899Z,3.60
2019-01-04T01:56:22.154Z,3.70
2019-01-04T02:00:30.494Z,3.80
2019-01-04T02:04:38.775Z,3.70
2019-01-04T02:08:47.042Z,3.70
2019-01-04T02:12:55.298Z,3.70
2019-01-04T02:17:03.549Z,3.70
2019-01-04T02:21:11.742Z,3.70
2019-01-04T02:25:20.111Z,3.70
2019-01-04T02:29:28.377Z,3.70
2019-01-04T02:33:36.713Z,3.70
2019-01-04T02:37:45.005Z,3.70
2019-01-04T02:41:53.409Z,3.60
2019-01-04T02:46:01.719Z,3.60
2019-01-04T02:50:09.977Z,3.60
2019-01-04T02:54:18.248Z,3.60
2019-01-04T02:58:26.531Z,3.70
2019-01-04T03:02:34.803Z,3.70
2019-01-04T03:06:43.170Z,3.80
2019-01-04T03:10:51.479Z,3.80
2019-01-04T03:14:59.754Z,3.70
2019-01-04T03:19:08.051Z,3.80
2019-01-04T03:23:16.315Z,3.80
2019-01-04T03:27:24.583Z,3.80
2019-01-04T03:31:32.864Z,3.80
2019-01-04T03:35:41.157Z,3.80
2019-01-04T03:39:49.442Z,3.80
2019-01-04T03:43:57.734Z,3.80
2019-01-04T03:48:06.023Z,3.90
2019-01-04T03:52:14.280Z,3.90
2019-01-04T03:56:22.576Z,3.90
2019-01-04T04:00:30.870Z,3.80
2019-01-04T04:04:39.100Z,3.90
2019-01-04T04:08:47.374Z,3.90
2019-01-04T04:12:55.683Z,3.90
2019-01-04T04:17:03.942Z,3.90
2019-01-04T04:21:12.242Z,3.90
2019-01-04T04:25:20.452Z,3.90
2019-01-04T04:29:28.744Z,3.90
2019-01-04T04:33:36.990Z,3.80
2019-01-04T04:37:45.509Z,3.80
2019-01-04T04:41:53.750Z,3.80
2019-01-04T04:46:02.092Z,3.80
2019-01-04T04:50:10.397Z,3.90
2019-01-04T04:54:18.689Z,4.00
2019-01-04T04:58:26.921Z,4.00
2019-01-04T05:02:35.268Z,4.00
2019-01-04T05:06:43.600Z,4.00
2019-01-04T05:10:51.845Z,4.10
2019-01-04T05:15:00.265Z,4.10
2019-01-04T05:19:08.403Z,4.10
2019-01-04T05:23:16.688Z,4.10
2019-01-04T05:27:24.957Z,4.10
2019-01-04T05:31:33.190Z,4.10
2019-01-04T05:35:41.452Z,4.00
2019-01-04T05:39:49.767Z,4.00
2019-01-04T05:43:58.088Z,4.00
2019-01-04T05:48:06.352Z,4.00
2019-01-04T05:52:14.600Z,4.00
2019-01-04T05:56:22.849Z,4.00
2019-01-04T06:00:31.108Z,4.00
2019-01-04T06:08:47.472Z,4.00
2019-01-04T06:12:55.722Z,4.00
2019-01-04T06:17:04.112Z,4.00
2019-01-04T06:21:12.340Z,3.90
2019-01-04T06:25:20.622Z,4.00
2019-01-04T06:29:28.887Z,3.90
2019-01-04T06:33:37.144Z,3.90
2019-01-04T06:37:45.445Z,3.90
2019-01-04T06:41:54.240Z,3.90
2019-01-04T06:46:02.534Z,4.00
2019-01-04T06:50:10.783Z,4.00
2019-01-04T06:56:38.227Z,4.00
2019-01-04T07:00:46.489Z,4.00
2019-01-04T07:04:54.789Z,4.00
2019-01-04T07:09:03.054Z,4.10
2019-01-04T07:13:11.327Z,4.10
2019-01-04T07:17:19.662Z,4.10
2019-01-04T07:21:27.915Z,4.20
2019-01-04T07:25:36.164Z,4.20
2019-01-04T07:29:48.740Z,4.20
2019-01-04T07:34:01.964Z,4.10
2019-01-04T07:38:10.385Z,4.20
2019-01-04T07:42:18.725Z,4.10
2019-01-04T07:46:27.000Z,4.20
2019-01-04T07:50:35.489Z,4.20
2019-01-04T07:54:43.764Z,4.20
2019-01-04T07:58:52.092Z,4.20
2019-01-04T08:03:08.457Z,4.30
2019-01-04T08:07:16.779Z,4.30
2019-01-04T08:11:25.107Z,4.40
2019-01-04T08:15:33.401Z,4.40
2019-01-04T08:19:41.804Z,4.50
2019-01-04T08:23:50.168Z,4.50
2019-01-04T08:27:58.471Z,4.50
2019-01-04T08:32:06.838Z,4.50
2019-01-04T08:36:15.299Z,4.50
2019-01-04T08:40:23.563Z,4.50
2019-01-04T08:44:31.985Z,4.50
2019-01-04T08:48:40.244Z,4.50
2019-01-04T08:52:48.526Z,4.40
2019-01-04T08:56:56.849Z,4.60
2019-01-04T09:01:28.929Z,4.60
2019-01-04T09:05:37.265Z,4.60
2019-01-04T09:09:45.558Z,4.60
2019-01-04T09:13:55.036Z,4.60
2019-01-04T09:18:03.369Z,4.60
2019-01-04T09:22:11.645Z,4.70
2019-01-04T09:26:19.946Z,4.60
2019-01-04T09:30:28.274Z,4.70
2019-01-04T09:34:36.592Z,4.70
2019-01-04T09:38:49.956Z,4.80
2019-01-04T09:42:58.254Z,4.80
2019-01-04T09:47:06.550Z,4.80
2019-01-04T09:55:22.958Z,5.00
2019-01-04T09:59:31.238Z,5.10
2019-01-04T10:03:39.554Z,5.10
2019-01-04T10:07:47.839Z,5.10
2019-01-04T10:11:56.104Z,5.20
2019-01-04T10:16:04.400Z,5.10
2019-01-04T10:20:12.747Z,5.00
2019-01-04T10:24:21.048Z,5.10
2019-01-04T10:28:29.368Z,5.00
2019-01-04T10:32:37.677Z,5.00
2019-01-04T10:36:45.951Z,5.00
2019-01-04T10:40:54.347Z,5.10
2019-01-04T10:45:02.637Z,5.10
2019-01-04T10:49:10.931Z,5.10
2019-01-04T10:53:19.185Z,5.10
2019-01-04T10:57:27.505Z,5.00
2019-01-04T11:01:35.795Z,5.00
2019-01-04T11:05:44.111Z,5.00
2019-01-04T11:09:52.437Z,5.10
2019-01-04T11:14:00.674Z,5.10
2019-01-04T11:18:10.005Z,5.10
2019-01-04T11:22:28.706Z,5.00
2019-01-04T11:26:41.521Z,5.10
2019-01-04T11:30:59.563Z,5.10
2019-01-04T11:36:21.582Z,5.00
2019-01-04T11:40:44.725Z,5.00
2019-01-04T11:45:05.052Z,5.00
2019-01-04T11:49:23.133Z,5.00
2019-01-04T11:53:31.403Z,5.00
2019-01-04T11:57:40.758Z,4.90
2019-01-04T12:05:56.060Z,4.90
2019-01-04T12:14:12.316Z,5.00
2019-01-04T12:18:20.576Z,5.00
2019-01-04T12:22:33.762Z,4.90
2019-01-04T12:26:42.058Z,5.00
2019-01-04T12:30:50.338Z,4.90
2019-01-04T12:34:58.637Z,5.00
2019-01-04T12:39:08.005Z,4.90
2019-01-04T12:43:16.277Z,5.00
2019-01-04T12:47:24.584Z,4.90
2019-01-04T12:51:32.861Z,4.90
2019-01-04T12:55:41.157Z,4.90
2019-01-04T12:59:49.476Z,4.80
2019-01-04T13:03:57.730Z,4.80
2019-01-04T13:08:06.036Z,4.80
2019-01-04T13:12:14.324Z,4.90
2019-01-04T13:16:22.637Z,4.90
2019-01-04T13:20:30.891Z,4.80
2019-01-04T13:24:39.176Z,4.90
2019-01-04T13:28:47.448Z,4.80
2019-01-04T13:32:55.727Z,4.90
2019-01-04T13:37:04.033Z,4.90
2019-01-04T13:41:12.380Z,4.90
2019-01-04T13:45:20.636Z,4.90
2019-01-04T13:49:28.923Z,4.80
2019-01-04T13:53:37.225Z,4.90
2019-01-04T13:57:45.564Z,4.80
2019-01-04T14:01:53.823Z,4.80
2019-01-04T14:06:02.082Z,4.80
2019-01-04T14:10:10.433Z,4.70
2019-01-04T14:14:18.789Z,4.80
2019-01-04T14:18:27.089Z,4.80
2019-01-04T14:22:35.391Z,4.80
2019-01-04T14:26:43.662Z,4.80
2019-01-04T14:30:51.964Z,4.70
2019-01-04T14:35:00.248Z,4.80
2019-01-04T14:39:08.796Z,4.70
2019-01-04T14:43:17.088Z,4.60
2019-01-04T14:47:25.334Z,4.70
2019-01-04T14:51:33.583Z,4.70
2019-01-04T14:55:41.916Z,4.70
2019-01-04T14:59:50.224Z,4.70
2019-01-04T15:03:58.548Z,4.70
2019-01-04T15:08:06.836Z,4.70
2019-01-04T15:12:15.269Z,4.70
2019-01-04T15:16:23.550Z,4.60
2019-01-04T15:20:31.871Z,4.60
2019-01-04T15:24:40.199Z,4.70
2019-01-04T15:28:48.464Z,4.70
2019-01-04T15:33:00.478Z,4.60
2019-01-04T15:37:08.782Z,4.70
2019-01-04T15:41:17.097Z,4.60
2019-01-04T15:45:25.385Z,4.60
2019-01-04T15:49:33.710Z,4.60
2019-01-04T15:53:42.116Z,4.60
2019-01-04T15:57:50.421Z,4.60
2019-01-04T16:01:58.668Z,4.50
2019-01-04T16:06:06.939Z,4.50
2019-01-04T16:10:15.188Z,4.50
2019-01-04T16:14:23.516Z,4.50
2019-01-04T16:18:31.796Z,4.50
2019-01-04T16:22:40.131Z,4.40
2019-01-04T16:26:48.376Z,4.40
2019-01-04T16:30:56.636Z,4.40
2019-01-04T16:35:05.158Z,4.40
2019-01-04T16:39:13.399Z,4.40
2019-01-04T16:43:21.660Z,4.40
2019-01-04T16:47:29.918Z,4.40
2019-01-04T16:55:47.091Z,4.30
2019-01-04T16:59:55.356Z,4.30
2019-01-04T17:04:03.691Z,4.30
2019-01-04T17:08:11.943Z,4.30
2019-01-04T17:12:20.261Z,4.20
2019-01-04T17:16:28.738Z,4.20
2019-01-04T17:20:37.269Z,4.20
2019-01-04T17:24:45.663Z,4.30
2019-01-04T17:28:53.924Z,4.20
2019-01-04T17:33:09.516Z,4.10
2019-01-04T17:37:17.862Z,4.10
2019-01-04T17:41:26.118Z,4.10
2019-01-04T17:45:34.395Z,4.10
2019-01-04T17:49:42.686Z,4.20
2019-01-04T17:53:50.926Z,4.20
2019-01-04T17:57:59.291Z,4.20
2019-01-04T18:02:07.664Z,4.20
2019-01-04T18:06:15.967Z,4.20
2019-01-04T18:10:24.235Z,4.10
2019-01-04T18:14:32.590Z,4.20
2019-01-04T18:18:40.850Z,4.20
2019-01-04T18:22:49.236Z,4.10
2019-01-04T18:26:57.461Z,4.20
2019-01-04T18:31:05.791Z,4.10
2019-01-04T18:35:14.062Z,4.20
2019-01-04T18:39:37.417Z,4.20
2019-01-04T18:43:45.863Z,4.10
2019-01-04T18:47:54.246Z,4.20
2019-01-04T18:52:02.538Z,4.20
2019-01-04T18:56:10.811Z,4.20
2019-01-04T19:00:19.115Z,4.20
2019-01-04T19:04:27.597Z,4.20
2019-01-04T19:08:36.228Z,4.20
2019-01-04T19:12:44.498Z,4.20
2019-01-04T19:16:52.776Z,4.20
2019-01-04T19:21:01.071Z,4.20
2019-01-04T19:25:09.311Z,4.20
2019-01-04T19:29:17.555Z,4.20
2019-01-04T19:33:25.863Z,4.20
2019-01-04T19:37:34.218Z,4.20
2019-01-04T19:41:42.474Z,4.20
2019-01-04T19:45:50.745Z,4.20
2019-01-04T19:49:59.013Z,4.20
2019-01-04T19:54:07.344Z,4.10
2019-01-04T19:58:15.748Z,4.20
2019-01-04T20:02:23.989Z,4.20
2019-01-04T20:07:20.488Z,4.20
2019-01-04T20:13:00.738Z,4.20
2019-01-04T20:17:19.279Z,4.30
2019-01-04T20:21:32.773Z,4.20
2019-01-04T20:25:45.337Z,4.30
2019-01-04T20:30:15.892Z,4.30
2019-01-04T20:34:33.436Z,4.30
2019-01-04T20:38:46.986Z,4.30
2019-01-04T20:43:00.299Z,4.30
2019-01-04T20:47:13.849Z,4.40
2019-01-04T20:51:27.474Z,4.30
2019-01-04T20:55:45.912Z,4.40
2019-01-04T20:59:59.557Z,4.30
2019-01-04T21:04:12.059Z,4.30
2019-01-04T21:08:25.582Z,4.40
2019-01-04T21:12:39.461Z,4.40
2019-01-04T21:16:53.034Z,4.40
2019-01-04T21:21:11.465Z,4.40
2019-01-04T21:27:28.817Z,4.50
2019-01-04T21:31:42.549Z,4.40
2019-01-04T21:35:56.092Z,4.50
2019-01-04T21:40:09.801Z,4.50
2019-01-04T21:44:23.520Z,4.50
2019-01-04T21:48:40.030Z,4.50
2019-01-04T21:53:56.131Z,4.50
2019-01-04T21:58:10.094Z,4.50
2019-01-04T22:02:25.235Z,4.50
2019-01-04T22:06:39.725Z,4.50
2019-01-04T22:11:02.180Z,4.60
2019-01-04T22:15:52.092Z,4.60
2019-01-04T22:20:05.701Z,4.70
2019-01-04T22:24:22.200Z,4.70
2019-01-04T22:28:38.648Z,4.70
2019-01-04T22:33:51.811Z,4.70
2019-01-04T22:38:40.654Z,4.70
2019-01-04T22:42:54.925Z,4.90
2019-01-04T22:47:07.410Z,4.90
2019-01-04T22:51:21.698Z,4.90
2019-01-04T22:55:35.158Z,4.80
2019-01-04T23:00:17.831Z,5.00
2019-01-04T23:06:34.741Z,4.90
2019-01-04T23:10:47.253Z,4.90
2019-01-04T23:15:00.688Z,5.00
2019-01-04T23:19:14.515Z,4.90
2019-01-04T23:23:28.010Z,5.10
2019-01-04T23:27:45.622Z,5.10
2019-01-04T23:32:01.127Z,5.00
2019-01-04T23:36:14.809Z,5.10
2019-01-04T23:40:45.392Z,5.10
2019-01-04T23:44:58.885Z,5.10
2019-01-04T23:49:12.666Z,5.20
2019-01-04T23:54:01.486Z,5.20
2019-01-04T23:58:18.989Z,5.20
